Terminal Aerodrome Forecast
Issued by NWS

Home | Current Version | Previous Version | Text Only | Print | Product List | Glossary On
Versions: 1 2 3 4 5 6 7 8 9 10 11 12 13 14 15 16 17 18 19 20 21 22 23
326
FTUS43 KJKL 161124
TAFSJS
TAF
KSJS 161124Z 1612/1712 00000KT 1/4SM FG OVC003
     FM161400 00000KT 1SM BR OVC003
     FM161600 15004KT P6SM OVC015
     FM162100 16003KT P6SM VCSH BKN090
     FM170800 18005KT 3SM SHRA OVC025=

USA.gov is the U.S. government's official web portal to all federal, state and local government web resources and services.